Time;durP1;ratioP1;P1;durP2;ratioP2;P2;SDS_P1;SDS_P2;PMS_P1;PMS_P2;Temp;Humidity;BMP_temperature;BMP_pressure;BME280_temperature;BME280_humidity;BME280_pressure;Samples;Min_cycle;Max_cycle;Signal;HPM_P1;HPM_P2
2022/11/16 00:02:03;;;;;;;65.20;33.63;;;6.50;99.90;;;;;;5026630;28;20234;-79
2022/11/16 00:04:28;;;;;;;68.63;31.77;;;6.50;99.90;;;;;;5029568;28;20303;-78
2022/11/16 00:06:54;;;;;;;72.37;33.57;;;6.60;99.90;;;;;;5024014;28;20284;-78
2022/11/16 00:09:22;;;;;;;66.43;32.57;;;6.60;99.90;;;;;;5030228;28;20310;-76
2022/11/16 00:11:50;;;;;;;64.33;33.60;;;6.50;99.90;;;;;;5027736;28;20191;-77
2022/11/16 00:14:17;;;;;;;64.03;31.37;;;6.60;99.90;;;;;;5026098;28;20222;-78
2022/11/16 00:16:43;;;;;;;60.77;32.87;;;6.60;99.90;;;;;;5024977;28;20262;-78
2022/11/16 00:19:10;;;;;;;64.60;33.47;;;6.70;99.90;;;;;;5029503;28;20221;-76
2022/11/16 00:21:36;;;;;;;65.43;34.30;;;6.70;99.90;;;;;;5028004;28;20216;-78
2022/11/16 00:24:02;;;;;;;70.20;31.83;;;6.60;99.90;;;;;;5030855;28;20188;-78
2022/11/16 00:26:28;;;;;;;64.27;33.03;;;6.60;99.90;;;;;;5027344;28;20588;-78
2022/11/16 00:28:54;;;;;;;60.27;30.63;;;6.70;99.90;;;;;;5028346;28;20215;-78
2022/11/16 00:31:21;;;;;;;62.07;31.60;;;6.60;99.90;;;;;;5027930;28;20209;-75
2022/11/16 00:33:48;;;;;;;61.47;31.93;;;6.60;99.90;;;;;;5022940;28;20212;-78
2022/11/16 00:36:14;;;;;;;59.30;30.23;;;6.60;99.90;;;;;;5031844;28;20193;-78
2022/11/16 00:38:40;;;;;;;54.90;30.67;;;6.60;99.90;;;;;;5026612;28;20196;-78
2022/11/16 00:41:07;;;;;;;62.23;29.77;;;6.60;99.90;;;;;;5030772;28;20251;-78
2022/11/16 00:43:34;;;;;;;62.43;29.17;;;6.60;99.90;;;;;;5031000;28;20216;-78
2022/11/16 00:45:59;;;;;;;60.97;28.83;;;6.40;99.90;;;;;;5024484;28;20223;-78
2022/11/16 00:48:25;;;;;;;65.13;30.67;;;6.30;99.90;;;;;;5029928;28;20270;-78
2022/11/16 00:50:51;;;;;;;58.33;29.47;;;6.20;99.90;;;;;;5028740;28;20599;-78
2022/11/16 00:53:18;;;;;;;59.03;29.57;;;6.30;99.90;;;;;;5025401;28;20303;-79
2022/11/16 00:55:45;;;;;;;61.23;28.30;;;6.40;99.90;;;;;;5027320;28;20215;-78
2022/11/16 00:58:11;;;;;;;59.00;27.23;;;6.30;99.90;;;;;;5028362;28;20216;-79
2022/11/16 01:00:37;;;;;;;55.10;29.07;;;6.30;99.90;;;;;;5021947;28;20600;-80
2022/11/16 01:03:03;;;;;;;61.20;28.57;;;6.30;99.90;;;;;;5031072;28;20204;-78
2022/11/16 01:05:29;;;;;;;57.70;29.23;;;6.30;99.90;;;;;;5028759;28;20234;-78
2022/11/16 01:07:56;;;;;;;62.00;30.23;;;6.30;99.90;;;;;;5025348;28;20239;-78
2022/11/16 01:10:23;;;;;;;56.47;28.67;;;6.30;99.90;;;;;;5031244;28;20216;-77
2022/11/16 01:12:51;;;;;;;48.37;26.37;;;6.40;99.90;;;;;;5023896;28;20216;-77
2022/11/16 01:15:18;;;;;;;53.90;26.03;;;6.30;99.90;;;;;;5024784;28;20184;-78
2022/11/16 01:17:44;;;;;;;52.50;25.83;;;6.30;99.90;;;;;;5028232;28;20184;-77
2022/11/16 01:20:17;;;;;;;50.70;27.97;;;6.30;99.90;;;;;;5028348;28;20269;-78
2022/11/16 01:22:43;;;;;;;55.43;27.73;;;6.30;99.90;;;;;;5027025;28;20652;-78
2022/11/16 01:25:11;;;;;;;55.00;27.40;;;6.30;99.90;;;;;;5021522;28;20205;-77
2022/11/16 01:27:37;;;;;;;57.87;28.97;;;6.20;99.90;;;;;;5025235;28;20219;-77
2022/11/16 01:30:04;;;;;;;56.43;27.70;;;6.20;99.90;;;;;;5031149;28;20283;-77
2022/11/16 01:32:29;;;;;;;54.07;27.63;;;6.10;99.90;;;;;;5033865;28;20212;-77
2022/11/16 01:34:55;;;;;;;54.07;29.13;;;6.00;99.90;;;;;;5031393;28;20236;-77
2022/11/16 01:37:21;;;;;;;56.97;29.10;;;6.10;99.90;;;;;;5039129;28;20224;-76
2022/11/16 01:39:48;;;;;;;57.30;30.30;;;6.20;99.90;;;;;;5036515;28;20216;-77
2022/11/16 01:42:22;;;;;;;61.30;30.90;;;6.20;99.90;;;;;;5035117;28;20193;-78
2022/11/16 01:44:48;;;;;;;57.03;28.80;;;6.20;99.90;;;;;;5029260;28;20203;-78
2022/11/16 01:47:15;;;;;;;56.00;27.60;;;6.20;99.90;;;;;;5025456;28;20287;-77
2022/11/16 01:49:53;;;;;;;57.47;28.07;;;6.20;99.90;;;;;;5027952;28;20211;-78
2022/11/16 01:52:23;;;;;;;55.10;28.70;;;6.20;99.90;;;;;;5028352;28;20274;-78
2022/11/16 01:54:52;;;;;;;58.60;30.83;;;6.20;99.90;;;;;;5022035;28;20642;-77
2022/11/16 01:57:23;;;;;;;58.37;30.00;;;6.30;99.90;;;;;;5024487;28;20238;-77
2022/11/16 01:59:52;;;;;;;55.67;29.00;;;6.20;99.90;;;;;;5025347;28;20219;-77
2022/11/16 02:02:18;;;;;;;54.73;28.77;;;6.20;99.90;;;;;;5030096;28;20266;-78
2022/11/16 02:04:46;;;;;;;55.23;29.90;;;6.20;99.90;;;;;;5030446;28;20687;-78
2022/11/16 02:07:28;;;;;;;51.90;27.83;;;6.20;99.90;;;;;;5024740;28;20216;-78
2022/11/16 02:10:09;;;;;;;56.63;27.63;;;6.30;99.90;;;;;;5023348;28;20220;-78
2022/11/16 02:12:40;;;;;;;61.80;27.63;;;6.30;99.90;;;;;;5023837;28;20209;-76
2022/11/16 02:15:40;;;;;;;57.33;27.57;;;6.10;99.90;;;;;;5023582;28;20185;-78
2022/11/16 02:18:24;;;;;;;57.50;28.23;;;6.00;99.90;;;;;;5029537;28;20699;-78
2022/11/16 02:21:15;;;;;;;57.43;26.17;;;6.10;99.90;;;;;;5026119;28;20243;-78
2022/11/16 02:24:02;;;;;;;57.30;29.20;;;6.00;99.90;;;;;;5049017;23;20754;-77
2022/11/16 02:26:43;;;;;;;55.43;28.80;;;5.90;99.90;;;;;;5031980;28;20770;-77
2022/11/16 02:29:29;;;;;;;55.17;26.93;;;5.80;99.90;;;;;;5040702;28;20211;-76
2022/11/16 02:32:16;;;;;;;56.03;27.57;;;5.90;99.90;;;;;;5044332;28;20212;-77
2022/11/16 02:34:53;;;;;;;57.87;28.03;;;5.80;99.90;;;;;;5025233;28;20210;-76
2022/11/16 02:37:23;;;;;;;58.50;27.67;;;5.90;99.90;;;;;;5020589;28;20216;-74
2022/11/16 02:39:53;;;;;;;63.13;29.07;;;5.80;99.90;;;;;;5025228;28;20212;-77
2022/11/16 02:42:57;;;;;;;60.53;29.37;;;5.80;99.90;;;;;;5030872;28;20231;-75
2022/11/16 02:45:30;;;;;;;58.40;27.77;;;5.80;99.90;;;;;;5023152;28;20666;-78
2022/11/16 02:48:02;;;;;;;61.77;27.43;;;5.90;99.90;;;;;;5024995;28;20195;-77
2022/11/16 02:50:29;;;;;;;54.20;27.60;;;5.90;99.90;;;;;;5029071;28;20248;-77
2022/11/16 02:52:55;;;;;;;59.90;29.23;;;5.90;99.90;;;;;;5025054;28;20239;-76
2022/11/16 02:55:22;;;;;;;67.73;27.93;;;5.90;99.90;;;;;;5025752;28;20586;-77
2022/11/16 02:57:57;;;;;;;64.17;27.97;;;5.80;99.90;;;;;;5024949;28;20211;-77
2022/11/16 03:00:42;;;;;;;58.90;28.03;;;5.80;99.90;;;;;;5024519;28;20216;-78
2022/11/16 03:03:30;;;;;;;66.57;27.33;;;5.80;99.90;;;;;;5039349;28;20215;-77
2022/11/16 03:06:07;;;;;;;56.47;28.20;;;5.80;99.90;;;;;;5023913;28;20211;-78
2022/11/16 03:08:41;;;;;;;67.00;28.40;;;5.80;99.90;;;;;;5014300;28;20687;-77
2022/11/16 03:14:00;;;;;;;64.17;28.53;;;5.80;99.90;;;;;;5024105;28;20266;-76
2022/11/16 03:16:31;;;;;;;56.53;28.40;;;5.70;99.90;;;;;;5029830;28;20294;-77
2022/11/16 03:19:01;;;;;;;67.80;30.00;;;5.60;99.90;;;;;;5021635;28;20257;-78
2022/11/16 03:21:35;;;;;;;80.43;31.03;;;5.60;99.90;;;;;;5024738;28;20353;-77
2022/11/16 03:24:01;;;;;;;69.30;30.93;;;5.70;99.90;;;;;;5023626;28;20235;-76
2022/11/16 03:26:37;;;;;;;78.43;32.57;;;5.70;99.90;;;;;;5025520;28;20772;-78
2022/11/16 03:29:35;;;;;;;63.83;31.87;;;5.80;99.90;;;;;;5018083;28;20204;-77
2022/11/16 03:32:23;;;;;;;68.27;30.03;;;5.80;99.90;;;;;;5026752;28;20208;-77
2022/11/16 03:35:24;;;;;;;68.20;28.50;;;5.80;99.90;;;;;;5027562;28;20219;-77
2022/11/16 03:37:53;;;;;;;58.80;29.80;;;5.60;99.90;;;;;;5010190;28;20211;-77
2022/11/16 03:40:21;;;;;;;68.13;30.20;;;5.70;99.90;;;;;;5025751;28;20212;-74
2022/11/16 03:42:48;;;;;;;63.67;29.60;;;5.70;99.90;;;;;;5028043;28;20760;-77
2022/11/16 03:45:16;;;;;;;66.73;30.50;;;5.80;99.90;;;;;;5027456;28;20252;-77
2022/11/16 03:47:41;;;;;;;68.97;30.43;;;5.90;99.90;;;;;;5029282;28;20168;-77
2022/11/16 03:50:08;;;;;;;78.90;33.50;;;5.90;99.90;;;;;;5027693;28;20227;-77
2022/11/16 03:52:34;;;;;;;65.90;32.30;;;5.80;99.90;;;;;;5022473;28;20266;-77
2022/11/16 03:55:00;;;;;;;59.77;31.07;;;5.70;99.90;;;;;;5028050;28;20208;-77
2022/11/16 03:57:25;;;;;;;71.87;32.73;;;5.80;99.90;;;;;;5026943;28;20200;-78
2022/11/16 03:59:51;;;;;;;66.97;31.47;;;5.80;99.90;;;;;;5023631;28;20172;-78
2022/11/16 04:02:17;;;;;;;68.83;33.33;;;5.80;99.90;;;;;;5021733;28;20205;-78
2022/11/16 04:24:28;;;;;;;91.60;40.50;;;5.70;99.90;;;;;;5032207;28;20238;-80
2022/11/16 04:29:44;;;;;;;84.83;38.93;;;5.80;99.90;;;;;;5025809;28;20311;-77
2022/11/16 04:37:48;;;;;;;81.23;37.57;;;6.00;99.90;;;;;;5024224;28;20391;-77
2022/11/16 04:40:15;;;;;;;88.43;38.37;;;5.90;99.90;;;;;;5029248;28;20223;-77
2022/11/16 04:42:40;;;;;;;77.37;35.53;;;5.90;99.90;;;;;;5029924;28;20224;-78
2022/11/16 04:47:52;;;;;;;89.67;38.67;;;5.90;99.90;;;;;;5026219;28;20261;-76
2022/11/16 04:50:18;;;;;;;83.63;36.33;;;6.00;99.90;;;;;;5028551;28;20216;-77
2022/11/16 04:52:44;;;;;;;89.47;36.53;;;6.00;99.90;;;;;;5029489;28;20686;-77
2022/11/16 04:55:10;;;;;;;95.83;36.77;;;6.00;99.90;;;;;;5032820;28;20246;-76
2022/11/16 04:57:35;;;;;;;85.50;36.90;;;6.00;99.90;;;;;;5029861;28;20213;-77
2022/11/16 05:00:03;;;;;;;87.67;37.03;;;6.10;99.90;;;;;;5030088;28;20197;-76
2022/11/16 05:02:28;;;;;;;88.90;37.97;;;6.10;99.90;;;;;;5028778;28;20303;-76
2022/11/16 05:04:54;;;;;;;94.37;38.17;;;6.20;99.90;;;;;;5029447;28;20339;-76
2022/11/16 05:07:20;;;;;;;90.83;37.73;;;6.20;99.90;;;;;;5031193;28;20204;-73
2022/11/16 05:09:47;;;;;;;96.13;38.73;;;6.20;99.90;;;;;;5029596;28;20647;-77
2022/11/16 05:12:25;;;;;;;103.27;39.40;;;6.20;99.90;;;;;;5025713;28;20208;-77
2022/11/16 05:14:51;;;;;;;96.90;37.53;;;6.20;99.90;;;;;;5029600;28;20702;-78
2022/11/16 05:17:18;;;;;;;90.20;38.37;;;6.10;99.90;;;;;;5032615;28;20705;-79
2022/11/16 05:22:28;;;;;;;97.57;39.10;;;6.20;99.90;;;;;;5032574;28;20357;-76
2022/11/16 05:24:54;;;;;;;99.63;41.97;;;6.30;99.90;;;;;;5029309;28;20662;-78
2022/11/16 05:27:21;;;;;;;104.27;41.20;;;6.30;99.90;;;;;;5025835;28;20207;-74
2022/11/16 05:29:50;;;;;;;98.63;36.90;;;6.30;99.90;;;;;;5029340;28;20176;-77
2022/11/16 05:32:17;;;;;;;100.83;40.07;;;6.30;99.90;;;;;;5028124;28;20217;-78
2022/11/16 05:34:43;;;;;;;101.87;38.47;;;6.20;99.90;;;;;;5023306;28;20216;-77
2022/11/16 05:37:09;;;;;;;101.73;39.20;;;6.30;99.90;;;;;;5030906;28;20295;-76
2022/11/16 05:39:34;;;;;;;106.20;39.87;;;6.30;99.90;;;;;;5026940;28;20348;-76
2022/11/16 05:42:00;;;;;;;104.37;39.77;;;6.30;99.90;;;;;;5025530;28;20638;-76
2022/11/16 05:44:26;;;;;;;100.87;41.53;;;6.30;99.90;;;;;;5024476;28;20213;-76
2022/11/16 05:46:52;;;;;;;103.17;39.67;;;6.30;99.90;;;;;;5025471;28;20216;-77
2022/11/16 05:49:18;;;;;;;111.67;41.57;;;6.40;99.90;;;;;;5023946;28;20209;-77
2022/11/16 05:51:45;;;;;;;107.70;40.73;;;6.40;99.90;;;;;;5022302;28;20204;-77
2022/11/16 05:54:12;;;;;;;101.47;39.57;;;6.40;99.90;;;;;;5024004;28;20682;-77
2022/11/16 05:56:38;;;;;;;110.97;39.43;;;6.40;99.90;;;;;;5020916;28;20185;-77
2022/11/16 05:59:04;;;;;;;107.60;41.23;;;6.50;99.90;;;;;;5024568;28;20212;-77
2022/11/16 06:01:29;;;;;;;108.27;41.37;;;6.50;99.90;;;;;;5022101;28;20304;-77
2022/11/16 06:03:58;;;;;;;115.13;44.30;;;6.50;99.90;;;;;;5023472;28;20995;-77
2022/11/16 06:06:24;;;;;;;120.50;42.80;;;6.70;99.90;;;;;;5024342;28;20185;-78
2022/11/16 06:08:49;;;;;;;111.03;42.23;;;6.60;99.90;;;;;;5025060;28;20182;-77
2022/11/16 06:11:15;;;;;;;111.50;41.20;;;6.60;99.90;;;;;;5029363;28;20637;-77
2022/11/16 06:13:40;;;;;;;107.77;40.80;;;6.60;99.90;;;;;;5024821;28;20285;-78
2022/11/16 06:16:07;;;;;;;113.00;43.63;;;6.60;99.90;;;;;;5023253;28;20295;-77
2022/11/16 06:18:39;;;;;;;101.87;39.80;;;6.60;99.90;;;;;;5023463;28;20747;-76
2022/11/16 06:21:06;;;;;;;115.80;43.30;;;6.60;99.90;;;;;;5021011;28;20238;-77
2022/11/16 06:23:32;;;;;;;117.53;42.50;;;6.70;99.90;;;;;;5020050;28;20308;-77
2022/11/16 06:25:58;;;;;;;106.27;41.73;;;6.70;99.90;;;;;;5024305;28;20208;-76
2022/11/16 06:28:24;;;;;;;108.83;40.23;;;6.70;99.90;;;;;;5021373;28;20208;-76
2022/11/16 06:30:50;;;;;;;112.27;42.47;;;6.70;99.90;;;;;;5023194;28;20205;-77
2022/11/16 06:33:16;;;;;;;116.03;40.87;;;6.70;99.90;;;;;;5023617;28;20231;-77
2022/11/16 06:35:42;;;;;;;107.47;40.23;;;6.70;99.90;;;;;;5026702;28;20184;-76
2022/11/16 06:38:08;;;;;;;114.70;43.23;;;6.80;99.90;;;;;;5023914;28;20697;-77
2022/11/16 06:40:33;;;;;;;111.33;40.00;;;6.70;99.90;;;;;;5023690;28;20243;-76
2022/11/16 06:42:59;;;;;;;111.73;41.93;;;6.80;99.90;;;;;;5029745;28;20223;-77
2022/11/16 06:45:25;;;;;;;119.23;41.40;;;6.80;99.90;;;;;;5022519;28;20195;-76
2022/11/16 06:47:51;;;;;;;115.73;41.43;;;6.80;99.90;;;;;;5024109;28;20192;-78
2022/11/16 06:50:20;;;;;;;112.03;40.73;;;6.80;99.90;;;;;;5035009;28;20204;-77
2022/11/16 06:52:47;;;;;;;118.00;42.03;;;6.80;99.90;;;;;;5023976;28;20694;-78
2022/11/16 06:55:13;;;;;;;115.00;43.40;;;6.80;99.90;;;;;;5021774;28;20224;-78
2022/11/16 06:57:39;;;;;;;114.90;40.50;;;6.80;99.90;;;;;;5019546;28;20235;-76
2022/11/16 07:00:06;;;;;;;113.03;41.23;;;6.80;99.90;;;;;;5022276;28;20181;-76
2022/11/16 07:02:32;;;;;;;119.30;42.50;;;6.80;99.90;;;;;;5022446;28;20212;-76
2022/11/16 07:04:58;;;;;;;109.67;39.67;;;6.80;99.90;;;;;;5019206;28;20215;-78
2022/11/16 07:07:23;;;;;;;114.70;42.20;;;6.70;99.90;;;;;;5023098;28;20218;-77
2022/11/16 07:09:49;;;;;;;127.90;42.63;;;6.70;99.90;;;;;;5019784;28;20291;-77
2022/11/16 07:12:14;;;;;;;111.83;42.80;;;6.80;99.90;;;;;;5027581;28;20208;-77
2022/11/16 07:14:41;;;;;;;122.10;42.33;;;6.80;99.90;;;;;;5019176;28;20188;-78
2022/11/16 07:17:06;;;;;;;116.03;41.40;;;6.80;99.90;;;;;;5023908;28;20744;-78
2022/11/16 07:19:32;;;;;;;108.67;42.37;;;6.80;99.90;;;;;;5019807;28;20292;-78
2022/11/16 07:21:58;;;;;;;115.77;42.60;;;6.80;99.90;;;;;;5022773;28;20756;-78
2022/11/16 07:24:24;;;;;;;119.00;42.67;;;6.90;99.90;;;;;;5024750;28;20192;-78
2022/11/16 07:26:50;;;;;;;113.60;39.43;;;6.90;99.90;;;;;;5030912;28;20646;-78
2022/11/16 07:29:15;;;;;;;108.33;40.30;;;7.00;99.90;;;;;;5020936;28;20208;-75
2022/11/16 07:31:41;;;;;;;121.17;40.80;;;6.80;99.90;;;;;;5019351;28;20213;-77
2022/11/16 07:34:06;;;;;;;118.83;41.87;;;6.80;99.90;;;;;;5023292;28;20211;-78
2022/11/16 07:36:32;;;;;;;110.30;42.40;;;6.70;99.90;;;;;;5019291;28;20208;-77
2022/11/16 07:38:57;;;;;;;114.97;37.90;;;6.70;99.90;;;;;;5026305;28;20242;-78
2022/11/16 07:41:23;;;;;;;111.60;39.43;;;6.80;99.90;;;;;;5021136;28;20248;-77
2022/11/16 07:43:49;;;;;;;107.00;40.83;;;6.70;99.90;;;;;;5024039;28;20220;-77
2022/11/16 07:46:17;;;;;;;118.70;43.70;;;6.60;99.90;;;;;;5020067;28;20209;-77
2022/11/16 07:48:44;;;;;;;125.00;42.27;;;6.70;99.90;;;;;;5024554;28;20709;-76
2022/11/16 07:51:11;;;;;;;129.57;42.30;;;6.70;99.90;;;;;;5024829;28;20683;-76
2022/11/16 07:53:37;;;;;;;116.27;43.03;;;6.70;99.90;;;;;;5022704;28;20207;-77
2022/11/16 07:56:04;;;;;;;112.80;42.03;;;6.80;99.90;;;;;;5025439;28;20213;-77
2022/11/16 07:58:32;;;;;;;130.40;42.73;;;6.70;99.90;;;;;;5022232;28;20317;-78
2022/11/16 08:01:10;;;;;;;128.43;43.20;;;6.80;99.90;;;;;;5020351;28;20212;-77
2022/11/16 08:03:36;;;;;;;128.23;42.50;;;6.80;99.90;;;;;;5022278;28;20707;-77
2022/11/16 08:06:06;;;;;;;157.17;69.97;;;6.80;99.90;;;;;;5028137;28;20195;-78
2022/11/16 08:08:33;;;;;;;120.70;43.80;;;6.80;99.90;;;;;;5025303;28;20208;-75
2022/11/16 08:11:09;;;;;;;112.67;41.93;;;6.80;99.90;;;;;;5024011;28;20251;-75
2022/11/16 08:13:36;;;;;;;115.50;42.53;;;6.80;99.90;;;;;;5024108;28;20223;-75
2022/11/16 08:16:16;;;;;;;118.53;42.73;;;6.80;99.90;;;;;;5022384;28;20772;-76
2022/11/16 08:18:43;;;;;;;117.63;43.30;;;6.80;99.90;;;;;;5026628;28;20263;-76
2022/11/16 08:21:12;;;;;;;112.40;41.07;;;6.80;99.90;;;;;;5022715;28;20745;-76
2022/11/16 08:23:39;;;;;;;114.53;41.50;;;6.80;99.90;;;;;;5035374;23;20213;-77
2022/11/16 08:26:08;;;;;;;112.93;40.33;;;6.80;99.90;;;;;;5045821;28;20238;-77
2022/11/16 08:28:35;;;;;;;121.73;40.50;;;6.80;99.90;;;;;;5045840;28;20560;-77
2022/11/16 08:31:10;;;;;;;107.40;40.43;;;6.70;99.90;;;;;;5047333;28;20209;-78
2022/11/16 08:33:36;;;;;;;118.37;40.77;;;6.70;99.90;;;;;;5046090;28;20204;-77
2022/11/16 08:36:03;;;;;;;115.57;41.07;;;6.70;99.90;;;;;;5046310;28;20657;-78
2022/11/16 08:38:29;;;;;;;104.57;38.80;;;6.80;99.90;;;;;;5044464;28;20693;-78
2022/11/16 08:40:54;;;;;;;104.63;37.43;;;6.80;99.90;;;;;;5049695;28;20211;-76
2022/11/16 08:43:20;;;;;;;111.40;36.67;;;6.70;99.90;;;;;;5047920;28;20231;-75
2022/11/16 08:45:49;;;;;;;101.97;38.30;;;6.70;99.90;;;;;;5044898;28;20227;-77
2022/11/16 08:48:14;;;;;;;99.40;35.40;;;6.80;99.90;;;;;;5043413;28;20193;-78
2022/11/16 08:50:40;;;;;;;99.53;37.20;;;6.80;99.90;;;;;;5048672;28;20180;-78
2022/11/16 08:53:06;;;;;;;99.93;35.90;;;6.80;99.90;;;;;;5043343;28;20347;-80
2022/11/16 08:55:32;;;;;;;99.80;35.40;;;6.80;99.90;;;;;;5048443;28;20204;-77
2022/11/16 08:57:58;;;;;;;97.67;35.07;;;6.80;99.90;;;;;;5047804;28;20212;-78
2022/11/16 09:00:24;;;;;;;96.43;35.13;;;6.80;99.90;;;;;;5047715;28;20196;-77
2022/11/16 09:02:49;;;;;;;92.80;35.03;;;6.80;99.90;;;;;;5050921;28;20666;-77
2022/11/16 09:05:15;;;;;;;103.10;35.10;;;6.90;99.90;;;;;;5045760;28;20394;-78
2022/11/16 09:07:42;;;;;;;92.50;34.83;;;6.90;99.90;;;;;;5044203;28;20239;-78
2022/11/16 09:10:09;;;;;;;89.00;32.60;;;6.80;99.90;;;;;;5045899;28;20222;-77
2022/11/16 09:12:35;;;;;;;87.07;34.60;;;6.90;99.90;;;;;;5047888;28;20686;-77
2022/11/16 09:15:02;;;;;;;89.67;33.97;;;6.90;99.90;;;;;;5044462;28;20210;-77
2022/11/16 09:17:28;;;;;;;89.47;32.53;;;6.90;99.90;;;;;;5047924;28;20578;-76
2022/11/16 09:19:54;;;;;;;83.87;30.80;;;6.90;99.90;;;;;;5044416;28;20212;-78
2022/11/16 09:22:20;;;;;;;84.73;32.20;;;6.90;99.90;;;;;;5048597;28;20697;-81
2022/11/16 09:24:45;;;;;;;75.70;28.47;;;6.90;99.90;;;;;;5047886;28;20239;-78
2022/11/16 09:27:11;;;;;;;72.97;26.87;;;6.90;99.90;;;;;;5049132;28;20222;-77
2022/11/16 09:29:36;;;;;;;75.27;28.30;;;6.90;99.90;;;;;;5052847;28;20618;-78
2022/11/16 09:32:02;;;;;;;59.67;25.40;;;6.80;99.90;;;;;;5050340;28;20211;-77
2022/11/16 09:34:28;;;;;;;68.23;26.93;;;6.80;99.90;;;;;;5045023;28;20597;-76
2022/11/16 09:36:54;;;;;;;70.67;26.80;;;6.80;99.90;;;;;;5047850;28;20598;-76
2022/11/16 09:39:19;;;;;;;72.47;27.73;;;6.80;99.90;;;;;;5051198;28;20190;-75
2022/11/16 09:41:54;;;;;;;59.23;24.63;;;6.80;99.90;;;;;;5047235;28;20180;-78
2022/11/16 09:44:41;;;;;;;59.17;23.70;;;6.90;99.90;;;;;;5048594;28;20285;-76
2022/11/16 09:47:20;;;;;;;52.07;22.17;;;6.90;99.90;;;;;;5046897;28;20565;-77
2022/11/16 09:49:52;;;;;;;48.97;20.50;;;6.90;99.90;;;;;;5046432;28;20289;-78
2022/11/16 09:52:27;;;;;;;47.03;19.37;;;6.90;99.90;;;;;;5043428;28;20686;-79
2022/11/16 09:54:56;;;;;;;42.30;19.13;;;7.00;99.90;;;;;;5046736;28;20637;-76
2022/11/16 09:57:28;;;;;;;35.37;16.90;;;7.00;99.90;;;;;;5050554;28;20207;-78
2022/11/16 09:59:59;;;;;;;36.90;16.77;;;7.00;99.90;;;;;;5043261;28;20267;-75
2022/11/16 10:02:43;;;;;;;35.80;16.03;;;7.00;99.90;;;;;;5047807;28;20226;-78
2022/11/16 10:05:37;;;;;;;40.30;17.07;;;7.00;99.90;;;;;;5045789;28;20216;-77
2022/11/16 10:08:20;;;;;;;35.47;16.67;;;7.00;99.90;;;;;;5042148;28;20219;-77
2022/11/16 10:11:09;;;;;;;34.33;16.57;;;7.00;99.90;;;;;;5046922;28;20215;-77
2022/11/16 10:13:52;;;;;;;57.53;30.60;;;7.00;99.90;;;;;;5043878;28;20208;-77
2022/11/16 10:16:32;;;;;;;37.27;17.83;;;6.90;99.90;;;;;;5044039;28;20627;-78
2022/11/16 10:19:03;;;;;;;38.40;18.57;;;6.90;99.90;;;;;;5042587;28;20214;-77
2022/11/16 10:21:36;;;;;;;33.93;16.80;;;6.90;99.90;;;;;;5040408;28;20227;-77
2022/11/16 10:24:26;;;;;;;37.23;16.67;;;6.90;99.90;;;;;;5046591;28;20220;-75
2022/11/16 10:26:58;;;;;;;38.70;17.83;;;6.90;99.90;;;;;;5045899;28;20204;-76
2022/11/16 10:29:34;;;;;;;34.37;18.00;;;6.90;99.90;;;;;;5046820;28;20687;-77
2022/11/16 10:32:12;;;;;;;36.03;16.77;;;6.90;99.90;;;;;;5044645;28;20290;-77
2022/11/16 10:34:50;;;;;;;34.60;16.57;;;6.90;99.90;;;;;;5045522;28;20381;-76
2022/11/16 10:37:16;;;;;;;35.50;18.07;;;6.90;99.90;;;;;;5047085;28;20889;-76
2022/11/16 10:39:41;;;;;;;37.40;19.00;;;6.90;99.90;;;;;;5045965;28;20260;-78
2022/11/16 10:42:14;;;;;;;40.83;18.70;;;6.90;99.90;;;;;;5047686;28;20211;-78
2022/11/16 10:44:54;;;;;;;38.53;19.20;;;6.90;99.90;;;;;;5044444;28;20220;-77
2022/11/16 10:47:33;;;;;;;41.57;18.70;;;6.90;99.90;;;;;;5042289;28;20277;-75
2022/11/16 10:50:15;;;;;;;36.37;19.07;;;7.00;99.90;;;;;;5046554;28;20257;-76
2022/11/16 10:52:41;;;;;;;37.40;18.97;;;6.90;99.90;;;;;;5042461;28;20591;-76
2022/11/16 10:55:12;;;;;;;38.13;18.47;;;6.90;99.90;;;;;;5045754;28;20218;-77
2022/11/16 10:57:59;;;;;;;43.83;20.60;;;6.90;99.90;;;;;;5049088;28;20246;-78
2022/11/16 11:00:35;;;;;;;40.17;20.60;;;6.90;99.90;;;;;;5041648;28;20187;-77
2022/11/16 11:03:01;;;;;;;43.70;20.73;;;6.90;99.90;;;;;;5044195;28;20745;-77
2022/11/16 11:05:27;;;;;;;40.40;20.60;;;6.90;99.90;;;;;;5044972;28;20291;-78
2022/11/16 11:08:03;;;;;;;40.00;20.33;;;6.90;99.90;;;;;;5040007;28;20212;-76
2022/11/16 11:10:34;;;;;;;43.27;21.53;;;6.90;99.90;;;;;;5046185;28;20208;-77
2022/11/16 11:13:20;;;;;;;45.47;21.73;;;6.90;99.90;;;;;;5042659;28;20222;-77
2022/11/16 11:15:47;;;;;;;40.57;20.60;;;6.90;99.90;;;;;;5043398;28;20308;-78
2022/11/16 11:18:30;;;;;;;36.40;18.67;;;6.90;99.90;;;;;;5042303;28;20623;-78
2022/11/16 11:21:06;;;;;;;38.27;20.20;;;6.90;99.90;;;;;;5048408;28;20179;-76
2022/11/16 11:23:51;;;;;;;42.10;20.27;;;7.00;99.90;;;;;;5046033;28;20238;-76
2022/11/16 11:26:47;;;;;;;40.67;20.90;;;6.90;99.90;;;;;;5050752;28;20218;-76
2022/11/16 11:29:41;;;;;;;40.07;20.93;;;7.00;99.90;;;;;;5038727;28;20214;-76
2022/11/16 11:32:13;;;;;;;41.00;21.53;;;7.00;99.90;;;;;;5039810;28;20238;-77
2022/11/16 11:34:44;;;;;;;40.27;21.43;;;7.00;99.90;;;;;;5045125;28;20211;-77
2022/11/16 11:37:16;;;;;;;43.23;22.10;;;7.00;99.90;;;;;;5048019;28;20212;-76
2022/11/16 11:39:42;;;;;;;43.93;21.63;;;7.00;99.90;;;;;;5047815;28;20250;-77
2022/11/16 11:42:14;;;;;;;41.37;21.97;;;7.10;99.90;;;;;;5040506;28;20690;-78
2022/11/16 11:44:43;;;;;;;47.33;22.67;;;7.00;99.90;;;;;;5047992;28;20225;-79
2022/11/16 11:47:38;;;;;;;47.67;22.50;;;7.00;99.90;;;;;;5047172;28;20211;-77
2022/11/16 11:50:15;;;;;;;40.00;22.23;;;7.00;99.90;;;;;;5044433;28;20213;-76
2022/11/16 11:53:04;;;;;;;44.97;23.20;;;7.00;99.90;;;;;;5042750;28;20349;-76
2022/11/16 11:55:29;;;;;;;47.07;22.87;;;7.00;99.90;;;;;;5042638;28;20230;-77
2022/11/16 11:57:56;;;;;;;46.40;23.20;;;7.10;99.90;;;;;;5046622;28;20219;-76
2022/11/16 12:00:22;;;;;;;44.10;23.23;;;7.10;99.90;;;;;;5047208;28;20191;-77
2022/11/16 12:02:54;;;;;;;43.43;22.53;;;7.10;99.90;;;;;;5051503;28;20215;-78
2022/11/16 12:05:25;;;;;;;40.57;20.83;;;7.10;99.90;;;;;;5046302;28;20208;-77
2022/11/16 12:08:09;;;;;;;43.17;23.97;;;7.10;99.90;;;;;;5050140;28;20211;-78
2022/11/16 12:10:50;;;;;;;50.60;24.37;;;7.10;99.90;;;;;;5053341;28;20213;-78
2022/11/16 12:13:18;;;;;;;44.87;23.17;;;7.20;99.90;;;;;;5052153;28;20215;-78
2022/11/16 12:16:10;;;;;;;47.23;25.00;;;7.20;99.90;;;;;;5049005;28;20212;-79
2022/11/16 12:18:50;;;;;;;46.60;23.43;;;7.20;99.90;;;;;;5048364;28;20212;-78
2022/11/16 12:21:49;;;;;;;43.57;23.13;;;7.20;99.90;;;;;;5052768;28;20707;-78
2022/11/16 12:24:27;;;;;;;44.30;24.10;;;7.10;99.90;;;;;;5044537;28;20245;-78
2022/11/16 12:27:20;;;;;;;42.27;23.23;;;7.00;99.90;;;;;;5049378;28;20180;-75
2022/11/16 12:30:07;;;;;;;41.60;22.23;;;7.00;99.90;;;;;;5048425;28;20632;-76
2022/11/16 12:32:56;;;;;;;45.60;24.57;;;7.00;99.90;;;;;;5048038;28;20207;-79
2022/11/16 12:35:30;;;;;;;51.37;26.27;;;7.00;99.90;;;;;;5050402;28;20207;-78
2022/11/16 12:38:11;;;;;;;41.77;23.70;;;7.10;99.90;;;;;;5043375;28;20284;-78
2022/11/16 12:41:05;;;;;;;45.13;22.77;;;7.00;99.90;;;;;;5047596;28;20204;-79
2022/11/16 12:43:39;;;;;;;40.67;21.90;;;7.00;99.90;;;;;;5049696;28;20207;-77
2022/11/16 12:46:23;;;;;;;42.83;23.03;;;7.10;99.90;;;;;;5047967;28;20218;-78
2022/11/16 12:49:09;;;;;;;42.67;22.03;;;7.10;99.90;;;;;;5046271;28;20231;-79
2022/11/16 12:51:51;;;;;;;37.27;21.23;;;7.20;99.90;;;;;;5047083;28;20207;-79
2022/11/16 12:54:41;;;;;;;40.40;21.67;;;7.20;99.90;;;;;;5050453;28;20295;-78
2022/11/16 12:57:34;;;;;;;41.33;22.47;;;7.10;99.90;;;;;;5047930;28;20176;-77
2022/11/16 13:00:07;;;;;;;39.60;22.73;;;7.10;99.90;;;;;;5048494;28;20635;-78
2022/11/16 13:02:50;;;;;;;40.47;21.70;;;7.10;99.90;;;;;;5043899;28;20218;-77
2022/11/16 13:05:19;;;;;;;41.10;21.43;;;7.10;99.90;;;;;;5047025;28;20230;-78
2022/11/16 13:07:49;;;;;;;39.30;22.73;;;7.20;99.90;;;;;;5043626;28;20214;-78
2022/11/16 13:10:22;;;;;;;42.20;23.90;;;7.20;99.90;;;;;;5046057;28;20211;-78
2022/11/16 13:12:55;;;;;;;42.87;23.50;;;7.20;99.90;;;;;;5047070;28;20210;-78
2022/11/16 13:15:31;;;;;;;39.40;21.83;;;7.20;99.90;;;;;;5041247;28;20708;-75
2022/11/16 13:18:00;;;;;;;39.17;22.27;;;7.20;99.90;;;;;;5047830;28;20551;-78
2022/11/16 13:20:51;;;;;;;40.50;21.70;;;7.20;99.90;;;;;;5050809;28;20583;-76
2022/11/16 13:23:39;;;;;;;42.60;21.63;;;7.20;99.90;;;;;;5058362;28;20212;-77
2022/11/16 13:26:23;;;;;;;37.80;20.53;;;7.20;99.90;;;;;;5039293;28;20215;-77
2022/11/16 13:29:03;;;;;;;38.23;21.10;;;7.20;99.90;;;;;;5047313;28;20280;-77
2022/11/16 13:31:41;;;;;;;35.37;20.77;;;7.20;99.90;;;;;;5049448;28;20207;-78